Time;durP1;ratioP1;P1;durP2;ratioP2;P2;SDS_P1;SDS_P2;PMS_P1;PMS_P2;Temp;Humidity;BMP_temperature;BMP_pressure;BME280_temperature;BME280_humidity;BME280_pressure;Samples;Min_cycle;Max_cycle;Signal;HPM_P1;HPM_P2
2022/04/02 00:00:28;;;;;;;2.20;2.00;;;2.00;70.10;;;;;;5060407;28;20197;-53
2022/04/02 00:02:55;;;;;;;2.25;1.75;;;2.00;70.50;;;;;;5060886;28;20206;-52
2022/04/02 00:05:25;;;;;;;3.75;2.10;;;2.00;70.80;;;;;;5061090;28;20193;-53
2022/04/02 00:07:52;;;;;;;4.10;2.08;;;2.00;71.10;;;;;;5062947;28;20241;-53
2022/04/02 00:10:19;;;;;;;2.30;2.10;;;2.00;71.40;;;;;;5059240;28;20571;-51
2022/04/02 00:12:46;;;;;;;2.50;2.00;;;2.00;71.70;;;;;;5057415;28;20208;-53
2022/04/02 00:15:15;;;;;;;2.10;1.90;;;2.00;71.80;;;;;;5057385;28;20591;-52
2022/04/02 00:17:42;;;;;;;2.40;1.90;;;1.90;71.90;;;;;;5058016;28;20260;-52
2022/04/02 00:20:10;;;;;;;6.10;2.25;;;2.00;72.10;;;;;;5057940;28;20202;-52
2022/04/02 00:22:37;;;;;;;4.72;1.67;;;2.00;72.00;;;;;;5057457;28;20287;-53
2022/04/02 00:25:04;;;;;;;2.20;1.80;;;1.90;71.70;;;;;;5058556;28;20569;-53
2022/04/02 00:27:31;;;;;;;2.95;1.75;;;2.00;72.10;;;;;;5060897;28;20695;-53
2022/04/02 00:29:58;;;;;;;2.35;1.80;;;1.90;72.10;;;;;;5060463;28;20225;-53
2022/04/02 00:32:29;;;;;;;2.70;2.22;;;2.00;72.50;;;;;;5059224;28;20205;-54
2022/04/02 00:34:56;;;;;;;2.35;2.15;;;2.00;72.60;;;;;;5059886;28;20217;-53
2022/04/02 00:37:23;;;;;;;4.75;2.85;;;1.90;72.60;;;;;;5059347;28;20197;-53
2022/04/02 00:39:50;;;;;;;4.10;2.05;;;1.90;72.90;;;;;;5058726;28;20231;-53
2022/04/02 00:42:17;;;;;;;5.32;2.20;;;1.90;73.20;;;;;;5059922;28;20209;-53
2022/04/02 00:44:44;;;;;;;2.22;2.03;;;1.90;73.30;;;;;;5059653;28;20198;-52
2022/04/02 00:47:11;;;;;;;3.28;2.15;;;1.90;73.50;;;;;;5059119;28;20201;-52
2022/04/02 00:49:40;;;;;;;2.95;2.08;;;1.90;74.10;;;;;;5059743;28;20262;-53
2022/04/02 00:52:07;;;;;;;2.25;1.90;;;1.90;74.50;;;;;;5057994;28;20205;-54
2022/04/02 00:54:34;;;;;;;2.60;2.22;;;1.90;75.00;;;;;;5057360;28;20232;-53
2022/04/02 00:57:01;;;;;;;4.47;2.30;;;1.90;76.40;;;;;;5057272;28;20205;-54
2022/04/02 00:59:30;;;;;;;2.95;1.92;;;1.80;76.80;;;;;;5056843;28;20229;-53
2022/04/02 01:01:57;;;;;;;3.30;1.90;;;1.80;77.90;;;;;;5057495;28;20212;-52
2022/04/02 01:04:24;;;;;;;3.40;2.88;;;1.80;78.70;;;;;;5058263;28;20213;-53
2022/04/02 01:06:53;;;;;;;2.40;2.20;;;1.70;80.00;;;;;;5058858;28;20277;-54
2022/04/02 01:09:20;;;;;;;4.88;2.88;;;1.70;80.60;;;;;;5058583;28;20228;-53
2022/04/02 01:11:48;;;;;;;3.83;2.80;;;1.70;81.30;;;;;;5057918;28;20205;-53
2022/04/02 01:14:15;;;;;;;2.63;1.80;;;1.60;81.70;;;;;;5057602;28;20266;-53
2022/04/02 01:16:42;;;;;;;2.75;2.28;;;1.60;82.30;;;;;;5056948;28;20206;-53
2022/04/02 01:19:09;;;;;;;3.35;2.13;;;1.60;82.70;;;;;;5056187;28;20233;-54
2022/04/02 01:21:37;;;;;;;4.22;2.67;;;1.50;83.20;;;;;;5056784;28;20209;-53
2022/04/02 01:24:07;;;;;;;4.05;2.17;;;1.50;83.60;;;;;;5056808;28;20625;-53
2022/04/02 01:26:34;;;;;;;2.47;1.90;;;1.50;84.20;;;;;;5056692;28;20228;-54
2022/04/02 01:29:01;;;;;;;3.22;2.28;;;1.40;84.70;;;;;;5056690;28;20232;-54
2022/04/02 01:31:29;;;;;;;4.18;2.25;;;1.40;85.00;;;;;;5057250;28;20204;-53
2022/04/02 01:33:56;;;;;;;5.00;2.15;;;1.40;85.20;;;;;;5056551;28;20208;-54
2022/04/02 01:36:23;;;;;;;3.15;2.25;;;1.30;85.40;;;;;;5055572;28;20209;-54
2022/04/02 01:38:51;;;;;;;3.03;2.25;;;1.30;85.50;;;;;;5055973;28;20248;-53
2022/04/02 01:41:20;;;;;;;3.08;2.20;;;1.30;85.80;;;;;;5055912;28;20200;-54
2022/04/02 01:43:49;;;;;;;3.90;2.30;;;1.20;85.80;;;;;;5056070;28;20202;-54
2022/04/02 01:46:16;;;;;;;3.35;2.20;;;1.20;86.00;;;;;;5056153;28;20209;-55
2022/04/02 01:48:45;;;;;;;4.65;2.33;;;1.20;86.20;;;;;;5056184;28;20688;-53
2022/04/02 01:51:13;;;;;;;4.00;2.03;;;1.10;86.40;;;;;;5055981;28;20205;-53
2022/04/02 01:53:40;;;;;;;2.45;2.25;;;1.10;86.80;;;;;;5055419;28;20213;-52
2022/04/02 01:56:09;;;;;;;2.88;2.42;;;1.00;86.90;;;;;;5055686;28;20237;-52
2022/04/02 01:58:38;;;;;;;3.13;2.38;;;1.00;87.30;;;;;;5055387;28;20256;-54
2022/04/02 02:01:06;;;;;;;6.15;2.70;;;1.00;87.60;;;;;;5055307;28;20202;-53
2022/04/02 02:03:33;;;;;;;2.88;2.35;;;0.90;87.80;;;;;;5055448;28;20210;-51
2022/04/02 02:06:00;;;;;;;3.72;2.30;;;0.90;88.20;;;;;;5054977;28;20697;-53
2022/04/02 02:08:29;;;;;;;2.20;2.00;;;0.80;88.60;;;;;;5055150;28;20598;-53
2022/04/02 02:10:56;;;;;;;4.85;2.60;;;0.80;89.10;;;;;;5055083;28;20201;-53
2022/04/02 02:13:24;;;;;;;2.95;2.20;;;0.70;89.50;;;;;;5055343;28;20264;-52
2022/04/02 02:15:52;;;;;;;5.50;2.15;;;0.70;89.70;;;;;;5054718;28;20666;-53
2022/04/02 02:18:19;;;;;;;3.72;1.85;;;0.70;90.00;;;;;;5054926;28;20747;-53
2022/04/02 02:20:46;;;;;;;4.15;2.40;;;0.70;90.00;;;;;;5054815;28;20707;-53
2022/04/02 02:23:14;;;;;;;3.45;2.90;;;0.60;90.20;;;;;;5054752;28;20204;-53
2022/04/02 02:25:41;;;;;;;2.65;2.38;;;0.60;90.30;;;;;;5055238;28;20296;-53
2022/04/02 02:28:08;;;;;;;3.63;2.65;;;0.50;90.50;;;;;;5054778;28;20229;-53
2022/04/02 02:30:35;;;;;;;4.57;2.53;;;0.50;90.70;;;;;;5054762;28;20213;-52
2022/04/02 02:35:50;;;;;;;5.78;2.55;;;0.40;91.00;;;;;;5055221;28;20235;-52
2022/04/02 02:38:20;;;;;;;2.65;2.10;;;0.40;91.20;;;;;;5055594;28;20227;-53
2022/04/02 02:40:49;;;;;;;2.55;2.17;;;0.40;91.20;;;;;;5055565;28;20207;-53
2022/04/02 02:43:17;;;;;;;3.30;2.55;;;0.30;91.40;;;;;;5055315;28;20205;-53
2022/04/02 02:45:44;;;;;;;3.70;2.70;;;0.30;91.50;;;;;;5054921;28;20708;-52
2022/04/02 02:48:12;;;;;;;2.95;2.55;;;0.30;91.50;;;;;;5054483;28;20228;-53
2022/04/02 02:50:42;;;;;;;3.05;2.60;;;0.20;91.60;;;;;;5055109;28;20205;-52
2022/04/02 02:53:10;;;;;;;3.42;2.50;;;0.20;91.70;;;;;;5054510;28;20690;-53
2022/04/02 02:55:37;;;;;;;4.50;2.90;;;0.20;91.90;;;;;;5053977;28;20220;-53
2022/04/02 02:58:05;;;;;;;4.70;3.33;;;0.10;92.00;;;;;;5054063;28;20229;-53
2022/04/02 03:00:32;;;;;;;5.93;2.80;;;0.10;92.20;;;;;;5054411;28;20613;-55
2022/04/02 03:02:59;;;;;;;4.97;2.63;;;0.10;92.30;;;;;;5054312;28;20205;-53
2022/04/02 03:05:28;;;;;;;3.08;2.70;;;0.10;92.30;;;;;;5053766;28;20212;-53
2022/04/02 03:07:55;;;;;;;4.35;2.85;;;0.10;92.40;;;;;;5053535;28;20199;-53
2022/04/02 03:10:25;;;;;;;4.25;2.75;;;0.00;92.50;;;;;;5053596;28;20249;-53
2022/04/02 03:12:53;;;;;;;5.97;2.58;;;0.00;92.60;;;;;;5054023;28;20232;-51
2022/04/02 03:15:21;;;;;;;4.15;2.70;;;0.00;92.70;;;;;;5054178;28;20247;-52
2022/04/02 03:17:49;;;;;;;3.72;2.70;;;0.00;92.80;;;;;;5054120;28;20205;-53
2022/04/02 03:20:17;;;;;;;4.03;3.13;;;-0.10;92.70;;;;;;5053871;28;20199;-51
2022/04/02 03:22:47;;;;;;;3.67;2.55;;;-0.10;92.80;;;;;;5053940;28;20232;-52
2022/04/02 03:25:16;;;;;;;2.80;2.60;;;-0.10;92.80;;;;;;5054133;28;20208;-52
2022/04/02 03:27:44;;;;;;;5.60;2.65;;;-0.10;93.00;;;;;;5053784;28;20205;-53
2022/04/02 03:30:12;;;;;;;4.28;2.35;;;-0.10;93.20;;;;;;5053616;28;20227;-53
2022/04/02 03:32:41;;;;;;;5.88;3.05;;;-0.10;93.30;;;;;;5053807;28;20208;-53
2022/04/02 03:35:09;;;;;;;5.25;3.25;;;-0.10;93.40;;;;;;5053942;28;20216;-53
2022/04/02 03:37:37;;;;;;;3.55;2.83;;;-0.10;93.20;;;;;;5053661;28;20200;-53
2022/04/02 03:40:08;;;;;;;6.82;4.20;;;-0.10;93.10;;;;;;5053689;28;20211;-53
2022/04/02 03:42:35;;;;;;;4.10;3.03;;;-0.10;93.20;;;;;;5053353;28;20224;-52
2022/04/02 03:45:04;;;;;;;4.65;2.85;;;-0.10;93.30;;;;;;5053475;28;20208;-54
2022/04/02 03:47:31;;;;;;;4.07;3.10;;;-0.20;93.50;;;;;;5053270;28;20208;-53
2022/04/02 03:49:59;;;;;;;4.22;3.17;;;-0.20;93.70;;;;;;5053229;28;20317;-53
2022/04/02 03:52:26;;;;;;;5.00;3.40;;;-0.20;93.80;;;;;;5053189;28;20196;-53
2022/04/02 03:54:53;;;;;;;3.22;2.67;;;-0.20;93.80;;;;;;5052839;28;20231;-53
2022/04/02 03:57:22;;;;;;;3.30;2.78;;;-0.20;93.90;;;;;;5053551;28;20203;-53
2022/04/02 03:59:49;;;;;;;3.97;3.20;;;-0.20;93.90;;;;;;5052931;28;20232;-53
2022/04/02 04:02:17;;;;;;;2.80;2.60;;;-0.20;94.00;;;;;;5053828;28;20208;-53
2022/04/02 04:04:44;;;;;;;4.20;2.40;;;-0.20;94.10;;;;;;5054860;28;20230;-52
2022/04/02 04:09:34;;;;;;;4.32;3.33;;;-0.30;94.10;;;;;;5093240;27;20544;-52
2022/04/02 04:12:01;;;;;;;3.80;2.80;;;-0.20;94.30;;;;;;5091329;28;20202;-52
2022/04/02 04:14:28;;;;;;;6.13;3.08;;;-0.20;94.20;;;;;;5094232;28;20218;-52
2022/04/02 04:16:56;;;;;;;5.18;3.10;;;-0.30;94.20;;;;;;5093751;28;20217;-51
2022/04/02 04:19:23;;;;;;;3.90;2.70;;;-0.20;94.50;;;;;;5093314;28;20276;-52
2022/04/02 04:21:50;;;;;;;4.53;2.85;;;-0.20;94.40;;;;;;5093009;28;20214;-51
2022/04/02 04:24:18;;;;;;;4.60;2.95;;;-0.30;94.40;;;;;;5093184;28;20213;-52
2022/04/02 04:26:47;;;;;;;3.80;3.00;;;-0.20;94.60;;;;;;5093500;28;20210;-52
2022/04/02 04:29:14;;;;;;;3.20;2.90;;;-0.20;94.60;;;;;;5093687;28;20241;-52
2022/04/02 04:31:41;;;;;;;3.30;3.00;;;-0.20;94.70;;;;;;5094972;28;20203;-52
2022/04/02 04:34:08;;;;;;;6.35;3.17;;;-0.30;94.70;;;;;;5093633;28;20207;-50
2022/04/02 04:36:36;;;;;;;5.35;3.00;;;-0.20;94.70;;;;;;5092956;28;20570;-52
2022/04/02 04:39:04;;;;;;;3.10;2.70;;;-0.20;94.70;;;;;;5092068;28;20263;-53
2022/04/02 04:41:31;;;;;;;4.43;3.10;;;-0.20;94.70;;;;;;5091666;28;20207;-51
2022/04/02 04:44:00;;;;;;;5.40;3.03;;;-0.20;94.60;;;;;;5090974;28;20618;-51
2022/04/02 04:46:28;;;;;;;5.05;2.65;;;-0.20;94.60;;;;;;5090764;28;20214;-53
2022/04/02 04:48:55;;;;;;;3.72;3.30;;;-0.20;94.60;;;;;;5090316;28;20226;-53
2022/04/02 04:51:23;;;;;;;4.28;3.13;;;-0.10;94.50;;;;;;5090474;28;20202;-52
2022/04/02 04:53:50;;;;;;;4.10;3.10;;;-0.10;94.50;;;;;;5090036;28;20230;-53
2022/04/02 04:56:17;;;;;;;6.80;3.70;;;-0.10;94.50;;;;;;5091706;28;20247;-53
2022/04/02 04:58:45;;;;;;;2.72;2.53;;;-0.10;94.30;;;;;;5113510;22;20228;-48
2022/04/02 05:01:13;;;;;;;3.83;2.65;;;0.00;94.30;;;;;;5051407;28;20201;-51
2022/04/02 05:03:40;;;;;;;4.97;2.65;;;0.00;94.50;;;;;;5051866;28;20209;-50
2022/04/02 05:06:12;;;;;;;4.18;3.22;;;0.00;94.10;;;;;;5051982;28;20227;-50
2022/04/02 05:08:39;;;;;;;4.93;3.30;;;0.10;94.00;;;;;;5050613;28;20238;-51
2022/04/02 05:11:07;;;;;;;3.58;3.28;;;0.10;93.80;;;;;;5050970;28;20205;-50
2022/04/02 05:13:34;;;;;;;3.78;2.88;;;0.20;93.80;;;;;;5049992;28;20208;-50
2022/04/02 05:16:01;;;;;;;3.65;2.70;;;0.20;93.70;;;;;;5050435;28;20208;-50
2022/04/02 05:18:29;;;;;;;4.40;3.33;;;0.20;93.60;;;;;;5049884;28;20223;-50
2022/04/02 05:20:57;;;;;;;6.55;2.95;;;0.30;93.50;;;;;;5035824;28;20297;-50
2022/04/02 05:23:24;;;;;;;4.32;3.10;;;0.30;93.40;;;;;;5035939;28;20209;-48
2022/04/02 05:25:51;;;;;;;5.55;3.45;;;0.30;93.30;;;;;;5036211;28;20228;-50
2022/04/02 05:28:18;;;;;;;4.38;2.80;;;0.30;93.20;;;;;;5036270;28;20594;-49
2022/04/02 05:30:45;;;;;;;3.90;3.10;;;0.30;93.20;;;;;;5036583;28;20677;-50
2022/04/02 05:33:12;;;;;;;5.07;3.33;;;0.40;93.10;;;;;;5036572;28;20230;-50
2022/04/02 05:35:41;;;;;;;2.65;2.45;;;0.40;93.00;;;;;;5036789;28;20206;-50
2022/04/02 05:38:08;;;;;;;4.07;2.90;;;0.40;92.90;;;;;;5036640;28;20232;-50
2022/04/02 05:40:38;;;;;;;4.35;3.35;;;0.40;92.70;;;;;;5036772;28;20206;-49
2022/04/02 05:43:06;;;;;;;3.15;2.67;;;0.50;92.80;;;;;;5036307;28;20198;-49
2022/04/02 05:45:33;;;;;;;3.70;2.45;;;0.50;92.70;;;;;;5036101;28;20218;-49
2022/04/02 05:48:01;;;;;;;6.43;3.35;;;0.60;92.60;;;;;;5036747;28;20225;-49
2022/04/02 05:50:28;;;;;;;3.80;2.88;;;0.60;92.40;;;;;;5036181;28;20222;-49
2022/04/02 05:52:56;;;;;;;4.00;2.83;;;0.70;92.40;;;;;;5036075;28;20205;-50
2022/04/02 05:55:23;;;;;;;3.00;2.70;;;0.70;92.30;;;;;;5035823;28;20219;-49
2022/04/02 05:57:51;;;;;;;4.13;3.38;;;0.70;92.10;;;;;;5035162;28;20675;-50
2022/04/02 06:00:18;;;;;;;4.32;3.60;;;0.70;92.00;;;;;;5035221;28;20230;-50
2022/04/02 06:02:46;;;;;;;2.80;2.60;;;0.80;92.00;;;;;;5035414;28;20208;-50
2022/04/02 06:05:15;;;;;;;3.03;2.38;;;0.80;91.80;;;;;;5035520;28;20679;-50
2022/04/02 06:07:43;;;;;;;3.85;2.60;;;0.80;91.70;;;;;;5034893;28;20709;-50
2022/04/02 06:10:12;;;;;;;3.17;2.63;;;0.90;91.50;;;;;;5034996;28;20225;-50
2022/04/02 06:12:39;;;;;;;3.70;2.65;;;0.90;91.40;;;;;;5035314;28;20239;-50
2022/04/02 06:15:09;;;;;;;3.50;3.20;;;1.00;91.40;;;;;;5034844;28;20209;-51
2022/04/02 06:17:36;;;;;;;4.10;2.90;;;1.00;91.20;;;;;;5035138;28;20212;-50
2022/04/02 06:20:05;;;;;;;3.80;3.33;;;1.10;91.10;;;;;;5034948;28;20230;-50
2022/04/02 06:22:32;;;;;;;5.20;2.80;;;1.10;90.90;;;;;;5035092;28;20206;-50
2022/04/02 06:24:59;;;;;;;3.58;2.80;;;1.20;90.80;;;;;;5034672;28;20586;-50
2022/04/02 06:27:28;;;;;;;4.95;3.30;;;1.20;90.60;;;;;;5034537;28;20198;-51
2022/04/02 06:29:57;;;;;;;3.95;3.20;;;1.30;90.50;;;;;;5034328;28;20238;-51
2022/04/02 06:32:24;;;;;;;4.75;2.88;;;1.30;90.40;;;;;;5033604;28;20757;-52
2022/04/02 06:34:51;;;;;;;3.75;2.80;;;1.40;90.20;;;;;;5034822;28;20233;-52
2022/04/02 06:37:18;;;;;;;3.70;2.72;;;1.40;90.00;;;;;;5034395;28;20674;-51
2022/04/02 06:39:45;;;;;;;2.83;2.50;;;1.50;89.70;;;;;;5034227;28;20222;-50
2022/04/02 06:42:12;;;;;;;6.50;3.00;;;1.50;89.20;;;;;;5034306;28;20201;-51
2022/04/02 06:44:41;;;;;;;4.68;3.72;;;1.50;88.80;;;;;;5034200;28;20300;-52
2022/04/02 06:47:08;;;;;;;4.55;2.95;;;1.60;88.50;;;;;;5034492;28;20213;-52
2022/04/02 06:49:35;;;;;;;3.17;2.45;;;1.70;88.10;;;;;;5034316;28;20229;-51
2022/04/02 06:52:03;;;;;;;5.53;3.40;;;1.70;87.50;;;;;;5034441;28;20206;-51
2022/04/02 06:54:30;;;;;;;3.83;2.67;;;1.70;86.90;;;;;;5034328;28;20241;-50
2022/04/02 06:56:57;;;;;;;3.20;2.90;;;1.80;86.70;;;;;;5034287;28;20206;-51
2022/04/02 06:59:24;;;;;;;6.10;4.00;;;1.80;86.30;;;;;;5033893;28;20381;-51
2022/04/02 07:01:53;;;;;;;3.50;3.20;;;1.90;85.80;;;;;;5033962;28;20202;-50
2022/04/02 07:04:20;;;;;;;3.58;3.28;;;2.00;84.70;;;;;;5035676;28;20217;-52
2022/04/02 07:06:47;;;;;;;6.80;3.75;;;2.00;84.10;;;;;;5035148;28;20579;-52
2022/04/02 07:09:15;;;;;;;6.00;3.10;;;2.00;83.80;;;;;;5035475;28;20230;-51
2022/04/02 07:11:42;;;;;;;5.38;3.88;;;2.10;83.60;;;;;;5034842;28;20255;-51
2022/04/02 07:14:10;;;;;;;4.60;2.90;;;2.10;82.90;;;;;;5034457;28;20678;-52
2022/04/02 07:16:38;;;;;;;4.38;2.78;;;2.20;82.70;;;;;;5034244;28;20230;-51
2022/04/02 07:19:08;;;;;;;3.95;2.92;;;2.20;82.30;;;;;;5034511;28;20218;-51
2022/04/02 07:21:36;;;;;;;4.45;3.25;;;2.30;82.00;;;;;;5034711;28;20697;-51
2022/04/02 07:24:04;;;;;;;3.95;2.70;;;2.40;81.70;;;;;;5036477;28;20202;-51
2022/04/02 07:26:33;;;;;;;4.15;3.05;;;2.50;80.70;;;;;;5036158;28;20199;-51
2022/04/02 07:29:00;;;;;;;4.13;2.72;;;2.50;79.80;;;;;;5036212;28;20227;-51
2022/04/02 07:31:28;;;;;;;5.68;3.28;;;2.50;79.50;;;;;;5036306;28;20206;-51
2022/04/02 07:33:55;;;;;;;3.40;3.10;;;2.60;79.50;;;;;;5035561;28;20212;-51
2022/04/02 07:36:36;;;;;;;3.80;3.10;;;2.70;79.20;;;;;;5034173;28;20206;-51
2022/04/02 07:39:06;;;;;;;3.25;2.95;;;2.80;78.70;;;;;;5033860;28;20563;-51
2022/04/02 07:41:43;;;;;;;3.40;2.67;;;2.90;78.10;;;;;;5033396;28;20202;-51
2022/04/02 07:44:22;;;;;;;6.50;2.83;;;3.00;77.00;;;;;;5033064;28;20218;-52
2022/04/02 07:46:50;;;;;;;3.55;2.70;;;3.10;76.70;;;;;;5033680;28;20237;-51
2022/04/02 07:49:21;;;;;;;3.70;2.53;;;3.10;76.10;;;;;;5032920;28;20222;-52
2022/04/02 07:51:53;;;;;;;3.38;3.08;;;3.20;75.60;;;;;;5033388;28;20541;-50
2022/04/02 07:54:23;;;;;;;7.78;4.50;;;3.30;75.10;;;;;;5033194;28;20183;-51
2022/04/02 07:56:56;;;;;;;4.28;3.22;;;3.40;74.30;;;;;;5033496;28;20237;-51
2022/04/02 07:59:28;;;;;;;3.75;3.35;;;3.40;74.10;;;;;;5033018;28;20233;-51
2022/04/02 08:01:57;;;;;;;6.47;4.10;;;3.50;73.40;;;;;;5033098;28;20609;-51
2022/04/02 08:04:27;;;;;;;4.32;2.90;;;3.50;72.50;;;;;;5033396;28;20203;-50
2022/04/02 08:06:56;;;;;;;3.67;2.85;;;3.50;72.40;;;;;;5033583;28;20230;-50
2022/04/02 08:09:23;;;;;;;3.28;2.83;;;3.50;71.50;;;;;;5033019;28;20226;-51
2022/04/02 08:11:52;;;;;;;3.95;3.35;;;3.50;71.50;;;;;;5033553;28;20198;-51
2022/04/02 08:14:21;;;;;;;3.40;3.08;;;3.60;71.60;;;;;;5032774;28;20206;-51
2022/04/02 08:16:50;;;;;;;3.05;2.72;;;3.60;71.10;;;;;;5032751;28;20233;-51
2022/04/02 08:19:22;;;;;;;5.30;3.20;;;3.70;71.00;;;;;;5033014;28;20226;-49
2022/04/02 08:21:49;;;;;;;5.35;2.70;;;3.90;70.50;;;;;;5032745;28;20209;-51
2022/04/02 08:24:18;;;;;;;5.30;3.03;;;4.00;69.90;;;;;;5032613;28;20675;-51
2022/04/02 08:26:56;;;;;;;5.25;2.65;;;4.20;69.20;;;;;;5034026;28;20217;-51
2022/04/02 08:29:31;;;;;;;3.78;3.38;;;4.30;68.10;;;;;;5032664;28;20711;-52
2022/04/02 08:32:17;;;;;;;4.68;3.00;;;4.30;67.00;;;;;;5033193;28;20183;-51
2022/04/02 08:35:03;;;;;;;4.45;3.05;;;4.40;66.20;;;;;;5033068;28;20209;-50
2022/04/02 08:37:46;;;;;;;5.78;3.22;;;4.40;65.40;;;;;;5032913;28;20229;-51
2022/04/02 08:40:47;;;;;;;4.32;2.95;;;4.50;64.50;;;;;;5032949;28;20222;-51
2022/04/02 08:43:47;;;;;;;3.70;3.10;;;4.60;63.20;;;;;;5032364;28;20194;-51
2022/04/02 08:46:34;;;;;;;6.05;3.83;;;4.60;61.70;;;;;;5032399;28;20187;-51
2022/04/02 08:49:18;;;;;;;4.43;2.78;;;4.60;61.50;;;;;;5033104;28;20226;-51
2022/04/02 08:51:48;;;;;;;6.80;2.92;;;4.70;60.60;;;;;;5033238;28;20203;-51
2022/04/02 08:54:25;;;;;;;3.80;3.10;;;4.80;59.90;;;;;;5033752;28;20192;-51
2022/04/02 08:56:59;;;;;;;4.10;3.08;;;5.00;59.60;;;;;;5036216;28;20219;-51
2022/04/02 08:59:37;;;;;;;3.13;2.83;;;5.10;58.60;;;;;;5036154;28;20242;-50
2022/04/02 09:02:39;;;;;;;3.95;3.13;;;4.90;57.70;;;;;;5036660;28;20199;-50
2022/04/02 09:05:22;;;;;;;8.32;3.40;;;4.80;57.70;;;;;;5034295;28;20576;-52
2022/04/02 09:08:36;;;;;;;4.78;2.55;;;4.90;57.40;;;;;;5037017;28;20216;-52
2022/04/02 09:11:25;;;;;;;4.68;2.40;;;5.10;57.00;;;;;;5036375;28;20183;-52
2022/04/02 09:14:19;;;;;;;4.80;2.75;;;4.90;56.30;;;;;;5036043;28;20187;-52
2022/04/02 09:17:02;;;;;;;6.10;2.85;;;4.80;56.80;;;;;;5035813;28;20273;-51
2022/04/02 09:19:58;;;;;;;4.60;3.10;;;4.80;57.00;;;;;;5036248;28;20218;-51
2022/04/02 09:22:36;;;;;;;5.32;2.90;;;4.80;57.00;;;;;;5037055;28;20192;-51
2022/04/02 09:25:43;;;;;;;4.28;2.60;;;4.80;57.00;;;;;;5037194;28;20643;-51
2022/04/02 09:28:16;;;;;;;6.13;2.90;;;4.90;56.50;;;;;;5037574;28;20206;-50
2022/04/02 09:31:09;;;;;;;3.45;2.90;;;4.90;56.70;;;;;;5038553;28;20213;-51
2022/04/02 09:34:10;;;;;;;2.47;2.25;;;5.00;55.90;;;;;;5008478;28;20670;-51
2022/04/02 09:36:50;;;;;;;3.22;2.55;;;5.10;55.30;;;;;;5036773;28;20191;-51
2022/04/02 09:39:23;;;;;;;6.05;4.22;;;5.00;54.70;;;;;;5036234;28;20227;-52
2022/04/02 09:42:10;;;;;;;4.55;2.33;;;4.90;54.50;;;;;;5036734;28;20223;-51
2022/04/02 09:44:53;;;;;;;3.17;2.60;;;4.90;54.90;;;;;;5035573;28;20652;-51
2022/04/02 09:47:32;;;;;;;4.50;3.00;;;4.90;54.80;;;;;;5036012;28;20565;-51
2022/04/02 09:50:09;;;;;;;2.60;2.40;;;4.90;54.60;;;;;;5035216;28;20227;-51
2022/04/02 09:52:38;;;;;;;3.80;3.33;;;4.90;54.60;;;;;;5035610;28;20218;-51
2022/04/02 09:55:07;;;;;;;3.05;2.05;;;5.00;54.50;;;;;;5035726;28;20265;-51
2022/04/02 09:58:11;;;;;;;4.15;2.40;;;5.10;54.20;;;;;;5036140;28;20581;-50
2022/04/02 10:00:46;;;;;;;3.33;2.78;;;5.10;53.60;;;;;;5013028;28;20213;-52
2022/04/02 10:03:29;;;;;;;2.75;2.33;;;5.20;53.30;;;;;;5035263;28;20192;-52
2022/04/02 10:06:24;;;;;;;2.85;2.55;;;5.40;53.30;;;;;;5034925;28;20188;-52
2022/04/02 10:09:04;;;;;;;3.75;2.50;;;5.60;53.10;;;;;;5034989;28;20252;-52
2022/04/02 10:11:33;;;;;;;2.50;2.30;;;5.80;52.40;;;;;;5035646;28;20602;-51
2022/04/02 10:14:02;;;;;;;3.15;2.45;;;5.80;52.00;;;;;;5035002;28;20290;-52
2022/04/02 10:16:30;;;;;;;3.47;2.35;;;5.90;52.20;;;;;;5034800;28;20208;-52
2022/04/02 10:19:00;;;;;;;3.40;2.90;;;6.10;51.80;;;;;;5034593;28;20645;-52
2022/04/02 10:21:30;;;;;;;2.50;2.10;;;6.20;51.30;;;;;;5034618;28;20220;-52
2022/04/02 10:24:07;;;;;;;3.63;2.25;;;6.40;51.10;;;;;;5034542;28;20212;-52
2022/04/02 10:26:39;;;;;;;3.75;2.60;;;6.40;50.70;;;;;;5034358;28;20187;-52
2022/04/02 10:29:12;;;;;;;2.70;2.50;;;6.30;50.50;;;;;;5034609;28;20289;-52
2022/04/02 10:31:48;;;;;;;2.78;2.25;;;6.20;50.70;;;;;;5034601;28;20254;-52
2022/04/02 10:34:28;;;;;;;2.20;2.00;;;6.10;50.50;;;;;;5034340;28;20188;-51
2022/04/02 10:37:05;;;;;;;4.07;2.50;;;6.00;50.30;;;;;;5034468;28;20195;-52
2022/04/02 10:39:38;;;;;;;5.47;2.13;;;5.70;50.30;;;;;;5034348;28;20230;-51
2022/04/02 10:42:08;;;;;;;2.92;2.22;;;5.50;50.60;;;;;;5034421;28;20188;-51
2022/04/02 10:44:45;;;;;;;3.25;2.40;;;5.40;51.00;;;;;;5034416;28;20188;-51
2022/04/02 10:47:14;;;;;;;2.05;1.95;;;5.40;51.30;;;;;;5034588;28;20188;-52
2022/04/02 10:49:43;;;;;;;4.20;2.35;;;5.50;51.50;;;;;;5034422;28;20224;-52
2022/04/02 10:52:13;;;;;;;2.63;2.35;;;5.60;51.70;;;;;;5034497;28;20331;-52
2022/04/02 10:54:41;;;;;;;2.83;2.30;;;5.80;51.50;;;;;;5034178;28;20695;-52
2022/04/02 10:57:08;;;;;;;2.92;2.50;;;5.80;51.00;;;;;;5034383;28;20203;-54
2022/04/02 10:59:38;;;;;;;3.70;2.45;;;5.90;50.90;;;;;;5058701;22;20240;-52
2022/04/02 11:02:23;;;;;;;3.03;2.42;;;6.00;50.70;;;;;;5034184;28;20189;-52
2022/04/02 11:05:10;;;;;;;4.30;2.38;;;6.00;50.30;;;;;;5034259;28;20215;-53
2022/04/02 11:07:40;;;;;;;4.03;2.63;;;6.00;50.10;;;;;;5034122;28;20207;-50
2022/04/02 11:10:08;;;;;;;4.68;2.10;;;6.10;49.80;;;;;;5034144;28;20318;-50
2022/04/02 11:12:39;;;;;;;3.28;2.10;;;6.30;48.70;;;;;;5033821;28;20213;-50
2022/04/02 11:15:12;;;;;;;2.67;2.03;;;6.30;47.90;;;;;;5033835;28;20259;-52
2022/04/02 11:17:41;;;;;;;4.15;2.25;;;6.40;47.00;;;;;;5033311;28;20203;-50
2022/04/02 11:20:13;;;;;;;3.17;2.00;;;6.60;46.60;;;;;;5033749;28;20220;-51
2022/04/02 11:23:06;;;;;;;2.08;1.88;;;6.70;45.90;;;;;;5033596;28;20200;-54
2022/04/02 11:25:35;;;;;;;2.10;1.85;;;6.70;45.60;;;;;;5034914;28;20630;-54
2022/04/02 11:28:11;;;;;;;2.28;2.08;;;6.60;45.40;;;;;;5041544;28;20545;-53
2022/04/02 11:30:40;;;;;;;4.07;2.50;;;6.40;45.10;;;;;;5033762;28;20223;-53
2022/04/02 11:33:09;;;;;;;3.28;2.25;;;6.00;45.40;;;;;;5033767;28;20295;-52
2022/04/02 11:35:44;;;;;;;2.55;2.20;;;5.80;46.10;;;;;;5033596;28;20214;-54
2022/04/02 11:38:36;;;;;;;3.03;2.20;;;5.60;46.50;;;;;;5033539;28;20215;-53
2022/04/02 11:41:14;;;;;;;4.43;2.28;;;5.60;46.50;;;;;;5033706;28;20219;-54
2022/04/02 11:43:43;;;;;;;2.17;1.90;;;5.60;46.50;;;;;;5033850;28;20201;-54
2022/04/02 11:46:12;;;;;;;3.33;2.00;;;5.70;46.20;;;;;;5034639;28;20212;-52
2022/04/02 11:48:51;;;;;;;1.90;1.80;;;5.80;46.00;;;;;;5034308;28;20211;-53
2022/04/02 11:51:21;;;;;;;2.40;2.20;;;5.90;45.90;;;;;;5034054;28;20208;-52
2022/04/02 11:53:48;;;;;;;3.03;2.13;;;6.10;45.80;;;;;;5033426;28;20192;-54
2022/04/02 11:56:27;;;;;;;2.60;2.30;;;6.30;45.30;;;;;;5033499;28;20212;-53
2022/04/02 11:58:56;;;;;;;5.57;2.80;;;6.40;45.00;;;;;;5033032;28;20676;-53
2022/04/02 12:01:23;;;;;;;3.28;2.45;;;6.60;45.10;;;;;;5037398;28;20637;-51
2022/04/02 12:04:13;;;;;;;2.50;2.30;;;6.80;44.90;;;;;;5033543;28;20595;-50
2022/04/02 12:06:43;;;;;;;2.20;1.98;;;6.90;44.50;;;;;;5033614;28;20223;-50
2022/04/02 12:09:15;;;;;;;3.35;2.35;;;6.90;43.90;;;;;;5033625;28;20229;-51
2022/04/02 12:11:53;;;;;;;2.50;2.30;;;6.70;43.30;;;;;;5033096;28;20208;-50
2022/04/02 12:14:32;;;;;;;4.40;2.00;;;6.50;43.40;;;;;;5033335;28;20296;-52
2022/04/02 12:17:05;;;;;;;4.32;2.28;;;6.40;43.60;;;;;;5034278;28;20263;-51
2022/04/02 12:19:41;;;;;;;2.05;1.85;;;6.30;43.50;;;;;;5032867;28;20220;-51
2022/04/02 12:22:25;;;;;;;3.50;2.08;;;6.30;43.50;;;;;;5033115;28;20196;-50
2022/04/02 12:24:54;;;;;;;2.55;2.05;;;6.30;43.60;;;;;;5033386;28;20185;-51
2022/04/02 12:27:22;;;;;;;2.85;2.05;;;6.40;43.70;;;;;;5033022;28;20212;-50
2022/04/02 12:29:51;;;;;;;2.25;1.92;;;6.40;43.60;;;;;;5034289;28;20595;-52
2022/04/02 12:32:32;;;;;;;2.42;2.22;;;6.50;43.10;;;;;;5036722;28;20691;-52
2022/04/02 12:35:02;;;;;;;2.50;1.80;;;6.80;42.80;;;;;;5036968;28;20228;-49
2022/04/02 12:37:32;;;;;;;3.20;2.28;;;7.10;41.70;;;;;;5037108;28;20232;-53
2022/04/02 12:40:14;;;;;;;2.63;2.03;;;7.40;39.80;;;;;;5036794;28;20221;-51
2022/04/02 12:42:42;;;;;;;1.90;1.70;;;7.40;39.30;;;;;;5036442;28;20279;-50
2022/04/02 12:45:12;;;;;;;2.65;2.20;;;7.20;39.10;;;;;;5037611;28;20288;-51
2022/04/02 12:47:39;;;;;;;2.25;2.05;;;7.00;39.70;;;;;;5036395;28;20211;-50
2022/04/02 12:50:16;;;;;;;2.90;2.08;;;6.70;40.60;;;;;;5038185;28;20338;-52
2022/04/02 12:52:49;;;;;;;3.20;2.20;;;6.50;41.40;;;;;;5037549;28;20205;-52
2022/04/02 12:55:21;;;;;;;3.53;2.17;;;6.50;42.20;;;;;;5036598;28;20186;-53
2022/04/02 12:58:05;;;;;;;2.25;1.95;;;6.50;42.30;;;;;;5036499;28;20201;-51
2022/04/02 13:00:37;;;;;;;2.42;2.13;;;6.60;42.20;;;;;;5036246;28;20231;-52
2022/04/02 13:03:06;;;;;;;3.97;2.00;;;6.60;41.70;;;;;;5037203;28;20212;-51
2022/04/02 13:05:45;;;;;;;2.05;1.92;;;6.60;41.60;;;;;;5036695;28;20208;-54
2022/04/02 13:08:31;;;;;;;3.38;1.80;;;6.80;41.50;;;;;;5036642;28;20189;-52
2022/04/02 13:11:01;;;;;;;2.20;1.98;;;6.90;41.10;;;;;;5036113;28;20694;-53
2022/04/02 13:13:37;;;;;;;2.53;1.90;;;7.00;40.90;;;;;;5037394;28;20208;-54
2022/04/02 13:16:05;;;;;;;2.47;2.25;;;7.10;40.70;;;;;;5036166;28;20283;-53
2022/04/02 13:21:22;;;;;;;2.58;2.10;;;7.20;40.50;;;;;;5036440;28;20303;-52
2022/04/02 13:24:18;;;;;;;3.35;2.80;;;7.30;40.30;;;;;;5035827;28;20646;-53